createdAt,value
2022-12-03T00:00:12.534Z,22.70
2022-12-03T00:01:06.420Z,20.50
2022-12-03T00:01:39.767Z,21.30
2022-12-03T00:02:13.202Z,24.50
2022-12-03T00:02:46.715Z,22.50
2022-12-03T00:03:20.363Z,22.20
2022-12-03T00:03:54.920Z,28.90
2022-12-03T00:04:28.381Z,40.70
2022-12-03T00:05:01.683Z,40.90
2022-12-03T00:05:35.118Z,37.00
2022-12-03T00:06:09.580Z,31.00
2022-12-03T00:06:42.870Z,26.00
2022-12-03T00:07:16.995Z,24.80
2022-12-03T00:07:50.339Z,24.80
2022-12-03T00:08:23.808Z,23.80
2022-12-03T00:08:59.124Z,23.80
2022-12-03T00:09:34.807Z,23.00
2022-12-03T00:10:09.359Z,23.10
2022-12-03T00:10:48.644Z,22.90
2022-12-03T00:11:21.903Z,23.80
2022-12-03T00:11:57.744Z,22.80
2022-12-03T00:12:31.005Z,23.00
2022-12-03T00:13:04.464Z,23.00
2022-12-03T00:13:37.877Z,23.30
2022-12-03T00:14:11.268Z,24.40
2022-12-03T00:14:45.105Z,22.70
2022-12-03T00:15:18.498Z,22.00
2022-12-03T00:15:51.823Z,22.90
2022-12-03T00:16:26.463Z,21.90
2022-12-03T00:17:00.292Z,21.70
2022-12-03T00:17:34.113Z,22.00
2022-12-03T00:18:07.369Z,23.10
2022-12-03T00:18:42.549Z,23.50
2022-12-03T00:19:15.671Z,25.80
2022-12-03T00:19:48.888Z,23.90
2022-12-03T00:20:26.797Z,23.10
2022-12-03T00:21:00.073Z,22.50
2022-12-03T00:21:34.252Z,23.10
2022-12-03T00:22:07.603Z,22.90
2022-12-03T00:22:40.986Z,21.90
2022-12-03T00:23:14.213Z,22.20
2022-12-03T00:23:47.371Z,24.00
2022-12-03T00:24:20.670Z,36.30
2022-12-03T00:24:54.094Z,39.40
2022-12-03T00:25:28.863Z,28.80
2022-12-03T00:26:04.648Z,38.30
2022-12-03T00:26:37.952Z,38.20
2022-12-03T00:27:11.334Z,43.30
2022-12-03T00:27:45.154Z,41.50
2022-12-03T00:28:19.325Z,37.40
2022-12-03T00:28:54.924Z,42.40
2022-12-03T00:29:33.043Z,28.00
2022-12-03T00:30:07.343Z,25.40
2022-12-03T00:30:40.734Z,24.80
2022-12-03T00:31:14.163Z,25.40
2022-12-03T00:31:47.550Z,23.70
2022-12-03T00:32:20.740Z,28.70
2022-12-03T00:32:54.202Z,29.80
2022-12-03T00:33:27.488Z,25.60
2022-12-03T00:34:00.690Z,36.80
2022-12-03T00:34:38.668Z,30.00
2022-12-03T00:35:12.238Z,30.70
2022-12-03T00:35:45.500Z,37.80
2022-12-03T00:36:19.670Z,33.60
2022-12-03T00:36:56.598Z,31.30
2022-12-03T00:37:29.950Z,24.30
2022-12-03T00:38:03.466Z,22.40
2022-12-03T00:38:36.708Z,21.20
2022-12-03T00:39:10.039Z,20.20
2022-12-03T00:39:43.338Z,20.90
2022-12-03T00:40:16.632Z,19.30
2022-12-03T00:40:51.299Z,21.40
2022-12-03T00:41:24.794Z,24.90
2022-12-03T00:41:58.298Z,25.00
2022-12-03T00:42:31.643Z,21.80
2022-12-03T00:43:05.340Z,20.20
2022-12-03T00:43:41.134Z,27.90
2022-12-03T00:44:14.598Z,40.00
2022-12-03T00:44:47.754Z,33.70
2022-12-03T00:45:20.900Z,29.00
2022-12-03T00:45:58.052Z,30.00
2022-12-03T00:46:31.536Z,22.70
2022-12-03T00:47:05.175Z,22.00
2022-12-03T00:47:40.295Z,23.80
2022-12-03T00:48:15.613Z,25.80
2022-12-03T00:48:48.898Z,31.90
2022-12-03T00:49:22.304Z,34.60
2022-12-03T00:49:59.572Z,30.40
2022-12-03T00:50:32.821Z,31.30
2022-12-03T00:51:06.251Z,31.70
2022-12-03T00:51:39.520Z,26.40
2022-12-03T00:52:12.701Z,31.00
2022-12-03T00:52:46.040Z,26.00
2022-12-03T00:53:19.288Z,36.30
2022-12-03T00:53:52.470Z,27.60
2022-12-03T00:54:31.898Z,27.50
2022-12-03T00:55:09.370Z,27.00
2022-12-03T00:55:45.721Z,27.80
2022-12-03T00:56:18.922Z,27.00
2022-12-03T00:56:52.285Z,25.30
2022-12-03T00:57:25.488Z,25.00
2022-12-03T00:57:58.727Z,28.50
2022-12-03T00:58:34.464Z,28.40
2022-12-03T00:59:09.385Z,25.00
2022-12-03T00:59:42.705Z,24.20
2022-12-03T01:00:17.961Z,20.00
2022-12-03T01:00:52.289Z,20.20
2022-12-03T01:01:25.846Z,25.30
2022-12-03T01:02:01.695Z,28.20
2022-12-03T01:02:35.204Z,20.70
2022-12-03T01:03:13.901Z,20.40
2022-12-03T01:03:47.117Z,20.70
2022-12-03T01:04:20.500Z,23.00
2022-12-03T01:04:56.705Z,24.80
2022-12-03T01:05:32.229Z,25.90
2022-12-03T01:06:07.399Z,21.40
2022-12-03T01:06:40.694Z,25.90
2022-12-03T01:07:14.616Z,22.00
2022-12-03T01:07:47.953Z,25.00
2022-12-03T01:08:24.038Z,27.30
2022-12-03T01:08:57.542Z,27.30
2022-12-03T01:09:32.413Z,30.40
2022-12-03T01:10:07.429Z,29.40
2022-12-03T01:10:40.956Z,27.90
2022-12-03T01:11:32.951Z,26.60
2022-12-03T01:12:08.464Z,26.00
2022-12-03T01:12:41.603Z,33.90
2022-12-03T01:13:18.763Z,33.10
2022-12-03T01:13:51.977Z,27.90
2022-12-03T01:14:27.712Z,35.00
2022-12-03T01:15:05.299Z,35.80
2022-12-03T01:15:38.503Z,32.10
2022-12-03T01:16:11.767Z,40.40
2022-12-03T01:16:46.252Z,35.00
2022-12-03T01:17:19.512Z,28.90
2022-12-03T01:17:54.478Z,25.00
2022-12-03T01:18:27.773Z,21.80
2022-12-03T01:19:01.077Z,24.50
2022-12-03T01:19:35.507Z,30.20
2022-12-03T01:20:10.145Z,26.20
2022-12-03T01:20:43.562Z,28.20
2022-12-03T01:21:19.857Z,19.80
2022-12-03T01:21:53.050Z,18.00
2022-12-03T01:22:26.618Z,19.50
2022-12-03T01:22:59.815Z,19.20
2022-12-03T01:23:33.028Z,20.10
2022-12-03T01:24:06.601Z,29.50
2022-12-03T01:24:39.776Z,29.90
2022-12-03T01:25:13.028Z,26.30
2022-12-03T01:25:46.412Z,25.90
2022-12-03T01:26:19.624Z,29.10
2022-12-03T01:26:52.953Z,22.50
2022-12-03T01:27:26.325Z,19.80
2022-12-03T01:28:00.615Z,18.30
2022-12-03T01:28:33.964Z,25.90
2022-12-03T01:29:07.629Z,25.20
2022-12-03T01:29:41.065Z,33.30
2022-12-03T01:30:16.112Z,34.10
2022-12-03T01:31:09.391Z,25.80
2022-12-03T01:32:01.087Z,23.70
2022-12-03T01:32:34.386Z,23.20
2022-12-03T01:33:10.612Z,20.10
2022-12-03T01:33:43.892Z,18.50
2022-12-03T01:34:17.413Z,17.50
2022-12-03T01:34:53.365Z,17.70
2022-12-03T01:35:26.813Z,18.10
2022-12-03T01:35:59.981Z,20.20
2022-12-03T01:36:34.525Z,19.10
2022-12-03T01:37:07.818Z,18.00
2022-12-03T01:37:41.193Z,18.60
2022-12-03T01:38:14.433Z,18.50
2022-12-03T01:38:48.918Z,18.10
2022-12-03T01:39:22.173Z,18.60
2022-12-03T01:39:57.639Z,19.10
2022-12-03T01:40:31.883Z,20.20
2022-12-03T01:41:10.097Z,29.90
2022-12-03T01:41:49.234Z,30.50
2022-12-03T01:42:29.119Z,24.00
2022-12-03T01:43:02.363Z,24.50
2022-12-03T01:43:36.799Z,21.80
2022-12-03T01:44:32.465Z,26.40
2022-12-03T01:45:07.306Z,25.80
2022-12-03T01:45:40.451Z,21.40
2022-12-03T01:46:27.052Z,28.60
2022-12-03T01:47:04.416Z,19.80
2022-12-03T01:47:38.511Z,17.10
2022-12-03T01:48:16.878Z,25.00
2022-12-03T01:48:52.908Z,25.70
2022-12-03T01:49:42.544Z,19.50
2022-12-03T01:50:26.313Z,18.20
2022-12-03T01:50:59.553Z,15.90
2022-12-03T01:51:32.946Z,18.00
2022-12-03T01:52:06.670Z,18.20
2022-12-03T01:52:41.048Z,21.30
2022-12-03T01:53:16.223Z,20.30
2022-12-03T01:53:49.845Z,17.70
2022-12-03T01:54:31.281Z,17.80
2022-12-03T01:55:40.739Z,14.50
2022-12-03T01:56:18.613Z,15.40
2022-12-03T01:56:55.792Z,16.20
2022-12-03T01:57:40.143Z,16.10
2022-12-03T01:58:15.022Z,16.90
2022-12-03T01:58:48.782Z,20.20
2022-12-03T01:59:28.326Z,22.30
2022-12-03T02:00:02.057Z,17.60
2022-12-03T02:00:41.260Z,20.20
2022-12-03T02:01:17.871Z,24.60
2022-12-03T02:01:51.208Z,22.00
2022-12-03T02:02:32.393Z,19.70
2022-12-03T02:03:46.369Z,17.00
2022-12-03T02:04:25.439Z,15.10
2022-12-03T02:05:00.322Z,15.20
2022-12-03T02:05:34.122Z,15.50
2022-12-03T02:06:18.306Z,15.30
2022-12-03T02:06:51.741Z,16.50
2022-12-03T02:07:33.575Z,19.30
2022-12-03T02:08:37.492Z,20.20
2022-12-03T02:09:13.179Z,15.80
2022-12-03T02:09:46.573Z,17.20
2022-12-03T02:10:28.448Z,15.20
2022-12-03T02:11:05.938Z,16.20
2022-12-03T02:11:44.783Z,16.40
2022-12-03T02:12:25.189Z,20.30
2022-12-03T02:13:01.428Z,20.90
2022-12-03T02:13:37.603Z,20.60
2022-12-03T02:14:15.527Z,18.60
2022-12-03T02:14:49.293Z,18.20
2022-12-03T02:15:26.941Z,20.70
2022-12-03T02:16:00.204Z,25.00
2022-12-03T02:16:36.021Z,22.50
2022-12-03T02:17:13.212Z,19.70
2022-12-03T02:17:46.564Z,17.10
2022-12-03T02:18:20.764Z,17.40
2022-12-03T02:18:54.012Z,17.00
2022-12-03T02:19:30.138Z,17.00
2022-12-03T02:20:07.545Z,16.90
2022-12-03T02:21:11.300Z,19.40
2022-12-03T02:22:02.483Z,15.60
2022-12-03T02:23:10.091Z,16.10
2022-12-03T02:24:05.615Z,14.90
2022-12-03T02:24:55.935Z,14.60
2022-12-03T02:25:32.439Z,15.10
2022-12-03T02:26:08.640Z,15.10
2022-12-03T02:26:42.055Z,15.70
2022-12-03T02:27:15.391Z,15.80
2022-12-03T02:27:49.312Z,15.10
2022-12-03T02:28:25.346Z,13.80
2022-12-03T02:28:58.805Z,15.50
2022-12-03T02:29:33.098Z,17.20
2022-12-03T02:30:08.033Z,21.30
2022-12-03T02:30:41.384Z,19.10
2022-12-03T02:31:14.789Z,17.20
2022-12-03T02:31:48.170Z,17.00
2022-12-03T02:32:23.651Z,15.70
2022-12-03T02:33:00.563Z,16.50
2022-12-03T02:33:33.996Z,16.40
2022-12-03T02:34:07.750Z,16.60
2022-12-03T02:34:42.663Z,15.00
2022-12-03T02:35:27.430Z,15.60
2022-12-03T02:36:04.016Z,14.10
2022-12-03T02:36:40.372Z,13.50
2022-12-03T02:37:27.251Z,15.40
2022-12-03T02:38:08.579Z,14.60
2022-12-03T02:38:43.941Z,14.50
2022-12-03T02:39:19.208Z,15.00
2022-12-03T02:39:58.720Z,14.70
2022-12-03T02:40:34.117Z,17.20
2022-12-03T02:41:32.343Z,17.90
2022-12-03T02:42:27.182Z,13.80
2022-12-03T02:43:03.226Z,14.20
2022-12-03T02:43:37.534Z,12.30
2022-12-03T02:44:11.621Z,12.50
2022-12-03T02:44:45.029Z,16.50
2022-12-03T02:45:22.491Z,14.30
2022-12-03T02:45:58.623Z,15.90
2022-12-03T02:46:32.912Z,16.30
2022-12-03T02:47:06.420Z,15.20
2022-12-03T02:47:44.583Z,19.20
2022-12-03T02:48:25.765Z,16.30
2022-12-03T02:51:22.047Z,15.10
2022-12-03T02:51:58.775Z,16.80
2022-12-03T02:52:34.506Z,18.00
2022-12-03T02:53:12.813Z,16.00
2022-12-03T02:53:48.492Z,17.40
2022-12-03T02:54:22.942Z,19.00
2022-12-03T02:54:56.459Z,17.20
2022-12-03T02:55:36.532Z,18.70
2022-12-03T02:56:25.465Z,19.40
2022-12-03T02:56:59.940Z,15.40
2022-12-03T02:57:35.204Z,17.00
2022-12-03T02:58:11.259Z,22.20
2022-12-03T02:58:55.464Z,18.90
2022-12-03T02:59:29.018Z,18.10
2022-12-03T03:00:06.180Z,19.20
2022-12-03T03:00:40.200Z,18.90
2022-12-03T03:01:15.624Z,17.50
2022-12-03T03:01:49.922Z,17.20
2022-12-03T03:02:23.424Z,15.60
2022-12-03T03:02:57.378Z,15.40
2022-12-03T03:03:33.103Z,15.10
2022-12-03T03:04:07.020Z,16.00
2022-12-03T03:04:41.470Z,17.80
2022-12-03T03:05:18.094Z,16.20
2022-12-03T03:05:51.902Z,16.00
2022-12-03T03:06:33.220Z,17.00
2022-12-03T03:07:06.577Z,15.50
2022-12-03T03:07:40.881Z,14.40
2022-12-03T03:08:14.978Z,17.10
2022-12-03T03:08:49.466Z,18.00
2022-12-03T03:09:23.023Z,18.90
2022-12-03T03:09:56.541Z,16.30
2022-12-03T03:10:30.975Z,19.50
2022-12-03T03:11:04.397Z,18.70
2022-12-03T03:11:37.998Z,17.50
2022-12-03T03:12:11.797Z,15.70
2022-12-03T03:12:45.083Z,15.40
2022-12-03T03:13:19.918Z,19.00
2022-12-03T03:13:53.353Z,18.70
2022-12-03T03:14:26.654Z,19.90
2022-12-03T03:15:03.188Z,20.40
2022-12-03T03:15:38.284Z,16.70
2022-12-03T03:16:11.617Z,14.70
2022-12-03T03:16:45.042Z,12.70
2022-12-03T03:17:18.499Z,13.60
2022-12-03T03:17:52.359Z,12.90
2022-12-03T03:18:25.707Z,12.40
2022-12-03T03:18:59.028Z,11.90
2022-12-03T03:19:33.148Z,11.60
2022-12-03T03:20:08.838Z,11.60
2022-12-03T03:20:42.838Z,15.00
2022-12-03T03:21:16.098Z,15.10
2022-12-03T03:21:49.280Z,13.80
2022-12-03T03:22:22.555Z,13.90
2022-12-03T03:23:05.978Z,13.30
2022-12-03T03:23:41.653Z,11.90
2022-12-03T03:24:14.905Z,11.20
2022-12-03T03:24:48.103Z,12.80
2022-12-03T03:25:22.551Z,12.00
2022-12-03T03:26:14.089Z,11.40
2022-12-03T03:26:47.897Z,11.20
2022-12-03T03:27:21.168Z,12.00
2022-12-03T03:27:56.927Z,11.50
2022-12-03T03:28:31.524Z,12.40
2022-12-03T03:29:05.235Z,10.70
2022-12-03T03:29:40.639Z,11.70
2022-12-03T03:30:17.333Z,13.40
2022-12-03T03:30:55.992Z,13.10
2022-12-03T03:31:29.389Z,11.70
2022-12-03T03:32:03.705Z,12.40
2022-12-03T03:32:38.598Z,12.00
2022-12-03T03:33:13.722Z,12.30
2022-12-03T03:33:49.863Z,11.70
2022-12-03T03:34:23.128Z,12.90
2022-12-03T03:35:02.562Z,11.90
2022-12-03T03:35:37.343Z,12.30
2022-12-03T03:36:13.061Z,11.60
2022-12-03T03:36:47.147Z,11.50
2022-12-03T03:37:24.932Z,11.60
2022-12-03T03:38:02.893Z,11.80
2022-12-03T03:38:37.245Z,11.40
2022-12-03T03:39:16.118Z,11.40
2022-12-03T03:39:49.595Z,11.30
2022-12-03T03:40:22.854Z,11.30
2022-12-03T03:40:58.272Z,14.80
2022-12-03T03:41:36.829Z,15.00
2022-12-03T03:42:10.198Z,12.10
2022-12-03T03:42:43.518Z,11.90
2022-12-03T03:43:17.913Z,10.90
2022-12-03T03:43:51.227Z,13.50
2022-12-03T03:44:26.748Z,11.40
2022-12-03T03:45:00.181Z,10.50
2022-12-03T03:45:33.800Z,9.60
2022-12-03T03:46:07.851Z,11.00
2022-12-03T03:46:41.507Z,12.50
2022-12-03T03:47:16.180Z,13.50
2022-12-03T03:47:53.047Z,14.20
2022-12-03T03:48:26.611Z,13.90
2022-12-03T03:49:03.803Z,12.30
2022-12-03T03:49:37.303Z,11.60
2022-12-03T03:50:12.413Z,10.80
2022-12-03T03:50:46.470Z,10.90
2022-12-03T03:51:20.348Z,10.60
2022-12-03T03:51:55.103Z,10.80
2022-12-03T03:52:28.694Z,11.10
2022-12-03T03:53:06.313Z,11.10
2022-12-03T03:53:49.790Z,10.60
2022-12-03T03:54:23.889Z,8.90
2022-12-03T03:55:00.275Z,8.60
2022-12-03T03:55:35.890Z,9.40
2022-12-03T03:56:09.849Z,9.10
2022-12-03T03:56:43.357Z,10.00
2022-12-03T03:57:16.847Z,10.40
2022-12-03T03:57:50.628Z,10.40
2022-12-03T03:58:26.433Z,9.90
2022-12-03T03:59:00.085Z,10.40
2022-12-03T03:59:35.529Z,11.00
2022-12-03T04:00:09.561Z,10.30
2022-12-03T04:00:46.869Z,10.80
2022-12-03T04:01:20.283Z,10.20
2022-12-03T04:01:53.653Z,11.10
2022-12-03T04:02:28.799Z,10.80
2022-12-03T04:03:03.968Z,10.50
2022-12-03T04:03:37.562Z,10.80
2022-12-03T04:04:26.788Z,9.70
2022-12-03T04:05:00.442Z,10.30
2022-12-03T04:05:33.868Z,11.20
2022-12-03T04:06:07.407Z,10.70
2022-12-03T04:06:40.710Z,10.20
2022-12-03T04:07:14.984Z,10.50
2022-12-03T04:07:53.337Z,10.60
2022-12-03T04:08:26.626Z,10.40
2022-12-03T04:09:07.147Z,10.50
2022-12-03T04:09:40.264Z,9.90
2022-12-03T04:10:33.114Z,10.40
2022-12-03T04:11:25.263Z,9.50
2022-12-03T04:12:23.475Z,10.10
2022-12-03T04:12:56.828Z,10.30
2022-12-03T04:13:30.048Z,10.90
2022-12-03T04:14:03.477Z,11.00
2022-12-03T04:14:36.699Z,10.90
2022-12-03T04:15:14.367Z,9.80
2022-12-03T04:15:48.060Z,9.90
2022-12-03T04:16:22.202Z,11.00
2022-12-03T04:16:55.548Z,11.10
2022-12-03T04:17:28.853Z,11.20
2022-12-03T04:18:20.701Z,11.20
2022-12-03T04:18:54.008Z,18.20
2022-12-03T04:19:27.272Z,17.60
2022-12-03T04:20:00.552Z,14.30
2022-12-03T04:20:33.829Z,12.40
2022-12-03T04:21:26.285Z,13.60
2022-12-03T04:22:19.244Z,12.70
2022-12-03T04:22:52.428Z,11.90
2022-12-03T04:23:30.733Z,11.00
2022-12-03T04:24:05.813Z,10.80
2022-12-03T04:24:38.981Z,11.60
2022-12-03T04:25:31.004Z,11.60
2022-12-03T04:26:22.976Z,11.20
2022-12-03T04:27:17.493Z,15.00
2022-12-03T04:28:10.397Z,11.90
2022-12-03T04:28:49.547Z,13.80
2022-12-03T04:29:23.516Z,14.00
2022-12-03T04:29:56.668Z,12.90
2022-12-03T04:30:30.021Z,13.10
2022-12-03T04:31:26.040Z,12.60
2022-12-03T04:32:18.039Z,11.30
2022-12-03T04:33:10.069Z,13.00
2022-12-03T04:34:02.056Z,11.60
2022-12-03T04:34:54.528Z,12.60
2022-12-03T04:35:43.183Z,12.50
2022-12-03T04:36:20.388Z,12.80
2022-12-03T04:36:54.776Z,14.10
2022-12-03T04:37:28.253Z,14.40
2022-12-03T04:38:02.663Z,13.40
2022-12-03T04:38:35.912Z,12.70
2022-12-03T04:39:09.107Z,14.90
2022-12-03T04:39:42.323Z,15.20
2022-12-03T04:40:34.084Z,13.30
2022-12-03T04:41:07.299Z,16.60
2022-12-03T04:41:40.722Z,18.80
2022-12-03T04:42:14.244Z,15.40
2022-12-03T04:42:48.685Z,12.40
2022-12-03T04:43:22.093Z,12.90
2022-12-03T04:44:13.971Z,13.10
2022-12-03T04:44:47.342Z,11.10
2022-12-03T04:45:20.603Z,11.10
2022-12-03T04:45:53.898Z,12.80
2022-12-03T04:46:31.901Z,12.00
2022-12-03T04:47:16.646Z,11.30
2022-12-03T04:47:52.854Z,11.30
2022-12-03T04:48:26.571Z,11.40
2022-12-03T04:49:01.962Z,11.00
2022-12-03T04:49:37.178Z,12.20
2022-12-03T04:50:11.323Z,13.20
2022-12-03T04:50:44.615Z,14.70
2022-12-03T04:51:17.795Z,16.00
2022-12-03T04:51:51.063Z,13.30
2022-12-03T04:52:24.308Z,15.10
2022-12-03T04:52:58.263Z,12.50
2022-12-03T04:53:36.219Z,13.00
2022-12-03T04:54:12.302Z,11.60
2022-12-03T04:54:45.663Z,12.10
2022-12-03T04:55:18.850Z,11.80
2022-12-03T04:55:54.626Z,11.90
2022-12-03T04:56:27.991Z,11.70
2022-12-03T04:57:01.628Z,12.30
2022-12-03T04:57:34.825Z,13.00
2022-12-03T04:58:08.069Z,12.00
2022-12-03T04:58:41.288Z,11.70
2022-12-03T04:59:16.527Z,12.00
2022-12-03T04:59:50.025Z,11.80
2022-12-03T05:00:23.465Z,11.80
2022-12-03T05:00:56.831Z,11.70
2022-12-03T05:01:31.353Z,12.30
2022-12-03T05:02:06.352Z,12.30
2022-12-03T05:02:41.606Z,12.60
2022-12-03T05:03:14.976Z,13.30
2022-12-03T05:03:48.245Z,12.80
2022-12-03T05:04:21.545Z,13.50
2022-12-03T05:04:56.830Z,16.10
2022-12-03T05:05:32.595Z,17.40
2022-12-03T05:06:05.913Z,19.50
2022-12-03T05:06:40.323Z,17.20
2022-12-03T05:07:13.602Z,15.80
2022-12-03T05:07:48.673Z,16.40
2022-12-03T05:08:21.942Z,16.20
2022-12-03T05:08:55.141Z,15.20
2022-12-03T05:09:29.393Z,17.30
2022-12-03T05:10:02.535Z,16.20
2022-12-03T05:10:35.729Z,15.20
2022-12-03T05:11:09.076Z,13.70
2022-12-03T05:11:44.084Z,13.60
2022-12-03T05:12:17.374Z,13.30
2022-12-03T05:12:51.890Z,16.30
2022-12-03T05:13:25.285Z,15.00
2022-12-03T05:13:58.493Z,14.20
2022-12-03T05:14:33.588Z,12.80
2022-12-03T05:15:07.651Z,11.90
2022-12-03T05:15:40.914Z,11.50
2022-12-03T05:16:14.235Z,11.20
2022-12-03T05:16:47.659Z,11.60
2022-12-03T05:17:24.006Z,12.10
2022-12-03T05:17:57.236Z,10.90
2022-12-03T05:18:30.451Z,11.40
2022-12-03T05:19:04.923Z,11.30
2022-12-03T05:19:57.021Z,11.30
2022-12-03T05:20:43.841Z,10.80
2022-12-03T05:21:19.093Z,10.60
2022-12-03T05:21:52.338Z,11.10
2022-12-03T05:22:25.849Z,11.50
2022-12-03T05:22:59.037Z,11.70
2022-12-03T05:23:32.337Z,10.70
2022-12-03T05:24:06.032Z,11.30
2022-12-03T05:24:39.308Z,11.60
2022-12-03T05:25:14.841Z,12.20
2022-12-03T05:25:48.157Z,10.50
2022-12-03T05:26:22.927Z,11.00
2022-12-03T05:26:56.172Z,11.20
2022-12-03T05:27:29.418Z,10.90
2022-12-03T05:28:06.792Z,11.00
2022-12-03T05:28:40.178Z,10.10
2022-12-03T05:29:13.376Z,10.40
2022-12-03T05:29:46.705Z,11.30
2022-12-03T05:30:19.944Z,10.00
2022-12-03T05:30:53.295Z,11.90
2022-12-03T05:31:26.846Z,10.80
2022-12-03T05:32:00.083Z,10.10
2022-12-03T05:32:33.313Z,11.00
2022-12-03T05:33:07.763Z,11.30
2022-12-03T05:33:44.223Z,10.70
2022-12-03T05:34:17.928Z,9.80
2022-12-03T05:34:51.338Z,10.40
2022-12-03T05:35:24.903Z,12.10
2022-12-03T05:35:58.507Z,11.80
2022-12-03T05:36:31.984Z,11.00
2022-12-03T05:37:05.250Z,11.30
2022-12-03T05:37:38.629Z,11.40
2022-12-03T05:38:11.838Z,11.50
2022-12-03T05:38:45.043Z,12.10
2022-12-03T05:39:18.246Z,11.60
2022-12-03T05:39:53.983Z,11.40
2022-12-03T05:40:27.183Z,10.30
2022-12-03T05:41:00.737Z,11.60
2022-12-03T05:41:52.580Z,10.50
2022-12-03T05:42:44.796Z,10.00
2022-12-03T05:43:18.224Z,10.00
2022-12-03T05:43:51.443Z,10.50
2022-12-03T05:44:26.847Z,10.40
2022-12-03T05:45:02.492Z,10.80
2022-12-03T05:45:38.597Z,9.90
2022-12-03T05:46:11.889Z,10.60
2022-12-03T05:46:45.121Z,10.10
2022-12-03T05:47:18.343Z,10.10
2022-12-03T05:47:53.417Z,9.70
2022-12-03T05:48:28.104Z,9.90
2022-12-03T05:49:01.348Z,10.40
2022-12-03T05:49:34.748Z,10.20
2022-12-03T05:50:08.367Z,11.10
2022-12-03T05:50:45.962Z,10.10
2022-12-03T05:51:25.091Z,10.00
2022-12-03T05:52:00.753Z,10.10
2022-12-03T05:52:34.988Z,10.30
2022-12-03T05:53:08.182Z,10.30
2022-12-03T05:53:41.382Z,10.70
2022-12-03T05:54:14.655Z,10.10
2022-12-03T05:54:50.038Z,10.70
2022-12-03T05:55:25.425Z,10.60
2022-12-03T05:55:58.858Z,10.30
2022-12-03T05:56:33.985Z,10.80
2022-12-03T05:57:07.232Z,10.70
2022-12-03T05:57:41.911Z,10.20
2022-12-03T05:58:15.178Z,10.00
2022-12-03T05:58:48.410Z,10.60
2022-12-03T05:59:21.756Z,9.80
2022-12-03T05:59:55.007Z,10.20
2022-12-03T06:00:31.262Z,10.20
2022-12-03T06:01:04.420Z,9.90
2022-12-03T06:01:38.867Z,9.90
2022-12-03T06:02:12.289Z,10.30
2022-12-03T06:02:45.836Z,10.50
2022-12-03T06:03:19.591Z,10.50
2022-12-03T06:03:53.160Z,9.80
2022-12-03T06:04:26.475Z,10.60
2022-12-03T06:04:59.895Z,10.40
2022-12-03T06:05:35.052Z,10.10
2022-12-03T06:06:08.487Z,9.60
2022-12-03T06:06:41.728Z,10.20
2022-12-03T06:07:15.010Z,9.80
2022-12-03T06:07:52.546Z,10.20
2022-12-03T06:08:25.798Z,9.80
2022-12-03T06:08:59.332Z,9.60
2022-12-03T06:09:33.760Z,9.80
2022-12-03T06:10:12.948Z,9.90
2022-12-03T06:10:46.199Z,9.80
2022-12-03T06:11:19.451Z,9.90
2022-12-03T06:11:54.319Z,9.90
2022-12-03T06:12:27.767Z,9.40
2022-12-03T06:13:01.154Z,9.90
2022-12-03T06:13:34.574Z,10.00
2022-12-03T06:14:08.034Z,9.90
2022-12-03T06:14:41.201Z,9.50
2022-12-03T06:15:16.777Z,9.90
2022-12-03T06:15:50.137Z,9.80
2022-12-03T06:16:23.352Z,10.40
2022-12-03T06:16:56.663Z,10.00
2022-12-03T06:17:29.917Z,10.20
2022-12-03T06:18:03.232Z,10.60
2022-12-03T06:18:38.997Z,10.50
2022-12-03T06:19:12.156Z,10.70
2022-12-03T06:19:45.380Z,10.60
2022-12-03T06:20:20.450Z,10.30
2022-12-03T06:20:53.808Z,9.70
2022-12-03T06:21:27.007Z,9.80
2022-12-03T06:22:00.367Z,10.00
2022-12-03T06:22:33.677Z,10.60
2022-12-03T06:23:06.952Z,10.80
2022-12-03T06:23:44.886Z,10.30
2022-12-03T06:24:18.333Z,11.00
2022-12-03T06:24:51.881Z,10.70
2022-12-03T06:25:25.342Z,10.20
2022-12-03T06:25:58.589Z,10.60
2022-12-03T06:26:31.804Z,10.30
2022-12-03T06:27:05.500Z,9.80
2022-12-03T06:27:38.747Z,10.80
2022-12-03T06:28:11.932Z,10.50
2022-12-03T06:28:47.753Z,10.50
2022-12-03T06:29:22.313Z,10.80
2022-12-03T06:29:55.504Z,9.80
2022-12-03T06:30:28.710Z,9.90
2022-12-03T06:31:06.340Z,9.80
2022-12-03T06:31:39.681Z,9.80
2022-12-03T06:32:13.176Z,9.90
2022-12-03T06:32:46.412Z,9.80
2022-12-03T06:33:19.606Z,9.90
2022-12-03T06:33:55.738Z,10.70
2022-12-03T06:34:28.979Z,9.90
2022-12-03T06:35:02.509Z,10.40
2022-12-03T06:35:35.971Z,10.40
2022-12-03T06:36:09.389Z,10.50
2022-12-03T06:36:42.803Z,10.40
2022-12-03T06:37:16.170Z,10.50
2022-12-03T06:37:49.876Z,10.40
2022-12-03T06:38:23.316Z,10.50
2022-12-03T06:38:56.545Z,10.10
2022-12-03T06:39:29.903Z,9.90
2022-12-03T06:40:03.271Z,9.80
2022-12-03T06:40:38.460Z,10.60
2022-12-03T06:41:11.804Z,10.20
2022-12-03T06:41:45.363Z,10.30
2022-12-03T06:42:19.372Z,10.50
2022-12-03T06:42:53.740Z,9.50
2022-12-03T06:43:31.142Z,10.10
2022-12-03T06:44:04.784Z,10.40
2022-12-03T06:44:38.048Z,10.10
2022-12-03T06:45:14.359Z,11.00
2022-12-03T06:45:48.002Z,10.10
2022-12-03T06:46:23.665Z,10.30
2022-12-03T06:46:56.913Z,10.90
2022-12-03T06:47:30.246Z,10.10
2022-12-03T06:48:03.519Z,10.50
2022-12-03T06:48:36.739Z,11.00
2022-12-03T06:49:10.078Z,10.10
2022-12-03T06:49:44.255Z,10.50
2022-12-03T06:50:20.566Z,10.50
2022-12-03T06:50:56.797Z,10.40
2022-12-03T06:51:31.660Z,9.40
2022-12-03T06:52:05.105Z,10.90
2022-12-03T06:52:38.496Z,10.30
2022-12-03T06:53:19.040Z,8.70
2022-12-03T06:53:52.253Z,9.30
2022-12-03T06:54:25.454Z,9.90
2022-12-03T06:54:58.643Z,9.90
2022-12-03T06:55:31.921Z,10.40
2022-12-03T06:56:05.645Z,10.00
2022-12-03T06:56:44.883Z,9.30
2022-12-03T06:57:18.807Z,10.30
2022-12-03T06:57:51.937Z,9.50
2022-12-03T06:58:25.357Z,10.20
2022-12-03T06:59:00.997Z,10.60
2022-12-03T06:59:35.940Z,10.60
2022-12-03T07:00:11.510Z,10.10
2022-12-03T07:00:44.761Z,10.40
2022-12-03T07:01:19.752Z,10.00
2022-12-03T07:01:53.182Z,10.10
2022-12-03T07:02:26.559Z,9.90
2022-12-03T07:02:59.876Z,10.20
2022-12-03T07:03:33.578Z,10.70
2022-12-03T07:04:06.862Z,10.00
2022-12-03T07:04:44.791Z,10.30
2022-12-03T07:05:20.144Z,10.20
2022-12-03T07:05:53.487Z,10.40
2022-12-03T07:06:27.542Z,10.10
2022-12-03T07:07:00.890Z,11.10
2022-12-03T07:07:34.159Z,10.40
2022-12-03T07:08:07.498Z,10.00
2022-12-03T07:08:40.948Z,10.10
2022-12-03T07:09:17.111Z,10.50
2022-12-03T07:09:53.569Z,9.30
2022-12-03T07:10:26.906Z,10.30
2022-12-03T07:11:00.244Z,10.50
2022-12-03T07:11:33.511Z,10.50
2022-12-03T07:12:06.939Z,10.80
2022-12-03T07:12:40.147Z,10.70
2022-12-03T07:13:15.581Z,10.40
2022-12-03T07:13:48.750Z,11.50
2022-12-03T07:14:21.946Z,10.70
2022-12-03T07:14:55.436Z,10.00
2022-12-03T07:15:29.033Z,11.00
2022-12-03T07:16:02.281Z,10.80
2022-12-03T07:16:39.055Z,10.70
2022-12-03T07:17:12.494Z,10.70
2022-12-03T07:17:45.858Z,10.30
2022-12-03T07:18:19.251Z,10.30
2022-12-03T07:18:52.501Z,10.50
2022-12-03T07:19:32.104Z,10.60
2022-12-03T07:20:08.852Z,10.40
2022-12-03T07:20:42.779Z,10.20
2022-12-03T07:21:16.184Z,9.70
2022-12-03T07:21:49.514Z,10.40
2022-12-03T07:22:22.852Z,10.30
2022-12-03T07:22:56.543Z,10.10
2022-12-03T07:23:29.745Z,10.00
2022-12-03T07:24:03.189Z,9.80
2022-12-03T07:24:36.915Z,10.50
2022-12-03T07:25:14.145Z,10.10
2022-12-03T07:25:52.082Z,10.10
2022-12-03T07:26:26.354Z,10.60
2022-12-03T07:27:01.061Z,10.60
2022-12-03T07:27:34.529Z,10.40
2022-12-03T07:28:08.105Z,10.60
2022-12-03T07:28:41.773Z,10.60
2022-12-03T07:29:15.431Z,10.50
2022-12-03T07:29:51.741Z,9.50
2022-12-03T07:30:25.809Z,9.90
2022-12-03T07:30:59.163Z,10.30
2022-12-03T07:31:32.971Z,10.20
2022-12-03T07:32:07.228Z,10.00
2022-12-03T07:32:40.699Z,10.00
2022-12-03T07:33:13.919Z,10.10
2022-12-03T07:33:47.468Z,10.10
2022-12-03T07:34:20.733Z,10.50
2022-12-03T07:34:56.598Z,10.00
2022-12-03T07:35:32.167Z,10.50
2022-12-03T07:36:05.596Z,10.50
2022-12-03T07:36:43.482Z,10.90
2022-12-03T07:37:21.428Z,10.40
2022-12-03T07:37:56.367Z,10.30
2022-12-03T07:38:29.619Z,10.30
2022-12-03T07:39:02.912Z,10.20
2022-12-03T07:39:37.343Z,9.80
2022-12-03T07:40:12.904Z,10.30
2022-12-03T07:40:46.128Z,10.30
2022-12-03T07:41:19.431Z,10.60
2022-12-03T07:41:52.723Z,10.50
2022-12-03T07:42:26.057Z,10.60